Jemez Springs, Valles Caldera, New Mexico Weather observations

Data are for 10 minute period ending at time listed.
 Day   Time   Solar   Ave.   Ave.  Ave.  Vector  Max.   Baro.   Total    
  of    of     Rad.   Air    Rel.  Wind   Wind   Wind  Press.  Precip.   
Year   Day            Temp.  Hum.  Speed  Dir.   Gust                    
2016   (MST)  Kw/m2    F      %     mph   deg.    mph    mb.     in.     
-------------------------------------------------------------------------
 181    6:30   0.24   60.6    60    5.9    18     9.6   816.6    0.00 
 181    6:40   0.28   62.1    58    6.4    18    10.2   816.6    0.00 
 181    6:50   0.31   64.1    56    5.2     8    10.2   816.6    0.00 
 181    7:00   0.35   65.3    54    5.7    29     9.6   816.6    0.00 
 181    7:10   0.38   66.5    52    6.2    30    11.3   816.6    0.00 
 181    7:20   0.42   67.6    51    4.6    32     9.0   816.5    0.00 
 181    7:30   0.46   69.6    49    3.7    27     6.6   816.4    0.00 
 181    7:40   0.50   72.8    45    2.5    80     3.6   816.4    0.00 
 181    7:50   0.53   73.9    44    2.4    80     3.6   816.2    0.00 
 181    8:00   0.56   74.4    44    3.9   154     6.0   816.0    0.00 
 181    8:10   0.59   74.0    44    4.4   145     6.0   816.0    0.00 
 181    8:20   0.62   74.4    44    3.7   179     6.0   816.1    0.00 
 181    8:30   0.65   76.4    40    3.0   165     6.6   816.0    0.00 
 181    8:40   0.68   76.3    40    5.0   168     9.6   816.0    0.00 
 181    8:50   0.71   75.9    40    6.4   166    10.8   816.1    0.00 
 181    9:00   0.74   76.6    39    5.3   156     9.6   816.2    0.00 
 181    9:10   0.76   76.7    38    5.4   167     9.6   816.3    0.00 
 181    9:20   0.78   77.0    38    7.0   174    10.8   816.2    0.00 
 181    9:30   0.81   76.8    38    7.3   190    14.3   816.3    0.00 
 181    9:40   0.83   77.5    36    6.7   169    12.5   816.4    0.00 
 181    9:50   0.85   79.0    34    6.1   180    11.9   816.2    0.00 
 181   10:00   0.88   78.9    34    6.5   174    11.9   816.2    0.00 
 181   10:10   0.90   79.3    34    6.7   171    13.1   816.2    0.00 
 181   10:20   0.92   79.7    32    7.1   188    16.1   816.0    0.00 
 181   10:30   0.93   80.4    31    6.9   176    14.3   815.8    0.00 
 181   10:40   0.93   80.0    31    7.8   169    13.1   815.7    0.00 
 181   10:50   0.95   80.4    30    6.7   178    12.5   815.7    0.00 
 181   11:00   0.96   81.1    28    6.5   162    14.3   815.5    0.00 
 181   11:10   0.97   82.0    27    6.3   166    11.9   815.4    0.00 
 181   11:20   0.98   81.9    26    5.6   170    11.9   815.4    0.00 
 181   11:30   0.99   82.6    26    6.8   184    12.5   815.2    0.00 
 181   11:40   1.00   83.9    24    6.2   169    12.5   815.0    0.00 
 181   11:50   1.02   83.3    24    7.8   174    14.9   815.0    0.00 
 181   12:00   1.03   82.8    24    8.6   176    15.5   814.9    0.00 
 181   12:10   1.01   84.5    22    6.0   177    10.8   814.8    0.00 
 181   12:20   1.07   85.5    21    6.6   167    11.3   814.6    0.00 
 181   12:30   0.95   85.9    21    7.4   134    15.5   814.6    0.00 
 181   12:40   0.62   83.0    25    7.6   357    13.7   814.7    0.00 
 181   12:50   0.62   82.1    28    9.0    15    18.5   814.7    0.00 
 181   13:00   0.97   81.4    29    9.7    12    18.5   814.5    0.00 
 181   13:10   0.84   82.6    25    8.8    20    17.9   814.2    0.00 
 181   13:20   0.44   82.2    24    5.6    34    11.3   814.1    0.00 
 181   13:30   0.23   82.5    24    4.4    18    11.9   814.0    0.00 
 181   13:40   0.24   81.4    24    4.7    28     9.0   813.8    0.00 
 181   13:50   0.21   81.1    24    5.8   351    10.2   813.7    0.00 
 181   14:00   0.25   80.6    24    6.1   359     9.0   813.6    0.00 
 181   14:10   0.34   80.8    26    4.3     2     7.2   813.5    0.00 
 181   14:20   0.53   81.4    26    5.9    24    10.8   813.4    0.00 
 181   14:30   0.61   82.6    24    5.8   330     9.6   813.1    0.00 
 181   14:40   0.65   85.2    22    4.0   349     8.4   813.0    0.00 
 181   14:50   0.40   83.6    23    5.4    40     9.0   812.8    0.00 
 181   15:00   0.48   83.1    23    4.7    36     8.4   812.8    0.00 
 181   15:10   0.46   83.2    23    4.0    40     9.0   812.7    0.00 
 181   15:20   0.28   83.1    23    6.9   355    13.1   812.6    0.00 
 181   15:30   0.34   82.3    24    6.8   359    11.9   812.6    0.00 
 181   15:40   0.46   82.8    23    6.4     1    11.3   812.5    0.00 
 181   15:50   0.69   84.3    21    6.2     2     9.6   812.3    0.00 
 181   16:00   0.64   86.1    20    3.6    11     7.2   812.2    0.00 
 181   16:10   0.53   86.3    19    2.6    11     5.4   812.1    0.00 
 181   16:20   0.48   87.7    18    3.5   344     7.2   811.9    0.00 
 181   16:30   0.21   85.0    19    3.7    16     6.0   811.8    0.00 
 181   16:40   0.18   84.9    19    0.2    23     2.1   811.8    0.00 
 181   16:50   0.16   85.1    20    1.5    15     4.2   811.8    0.00 
 181   17:00   0.27   84.5    19    3.2    31     6.0   811.6    0.00 
 181   17:10   0.34   85.8    18    1.4   233     4.2   811.4    0.00 
 181   17:20   0.35   87.3    17    2.3   218     3.6   811.4    0.00 
 181   17:30   0.23   87.4    17    2.2   202     4.2   811.4    0.00 
 181   17:40   0.10   85.2    19    3.2   194     5.4   811.4    0.00 
 181   17:50   0.07   84.4    19    0.8   212     3.9   811.4    0.00 
 181   18:00   0.07   84.1    20    0.3   271     2.4   811.4    0.00 
 181   18:10   0.06   83.2    23    1.0   257     3.6   811.5    0.00 
 181   18:20   0.05   80.5    27    0.8   333     1.8   811.5    0.00 
 181   18:30   0.04   78.7    31    1.1   348     3.0   811.5    0.00 
 181   18:40   0.03   77.9    30    2.4   355     5.4   811.6    0.00 
 181   18:50   0.02   78.5    28    4.1    12     6.0   811.6    0.00 
 181   19:00   0.01   78.9    26    4.6     3     7.8   811.6    0.00 
 181   19:10   0.01   79.6    24    3.8   347     7.2   811.7    0.00 
 181   19:20   0.00   80.0    23    3.8   343     6.6   811.8    0.00 
 181   19:30   0.00   79.1    26    5.8    50    10.2   812.0    0.00 
 181   19:40   0.00   77.5    28    5.9    67    15.5   812.2    0.00 
 181   19:50   0.00   75.5    31    8.3    70    17.3   812.3    0.00 
 181   20:00   0.00   74.4    34    4.6     4    13.1   812.5    0.00 
 181   20:10   0.00   73.3    36    4.2    95     6.6   813.0    0.00 
 181   20:20   0.00   73.5    34    5.6   162    10.8   813.7    0.00 
 181   20:30   0.00   73.4    36    6.9   233    14.9   814.2    0.00 
 181   20:40   0.00   68.5    54    4.5   329     9.0   814.5    0.00 
 181   20:50   0.00   65.9    63    3.0    98     6.6   814.5    0.00 
 181   21:00   0.00   64.3    73    4.1    99    11.9   814.4    0.01 
 181   21:10   0.00   65.2    65    4.2   154    10.8   814.2    0.01 
 181   21:20   0.00   62.5    78    3.6    30    11.9   813.9    0.01 
 181   21:30   0.00   62.9    71    5.6    13    15.5   813.6    0.00 
 181   21:40   0.00   63.1    69    7.8    15    16.1   813.5    0.00 
 181   21:50   0.00   64.3    63    6.5   350    11.3   813.4    0.00 
 181   22:00   0.00   66.1    56    8.2   355    13.7   813.2    0.00 
 181   22:10   0.00   66.0    56    7.0     6    13.7   813.2    0.00 
 181   22:20   0.00   66.1    56    6.4    17    10.2   813.0    0.00 
 181   22:30   0.00   65.6    57    6.5     6    11.3   812.9    0.00 
 181   22:40   0.00   66.3    54    5.8    13     9.6   812.8    0.00 
 181   22:50   0.00   65.9    56    5.5    12     9.0   812.9    0.00 
 181   23:00   0.00   65.8    55    3.8   354     8.4   813.1    0.00 
 181   23:10   0.00   65.9    54    4.1    11     7.2   813.2    0.00 
 181   23:20   0.00   65.7    54    3.7   354     6.6   813.3    0.00 
 181   23:30   0.00   66.0    54    3.1    15     6.0   813.2    0.00 
 181   23:40   0.00   65.4    56    3.2    30     5.4   813.2    0.00 
 181   23:50   0.00   65.3    56    3.5    19     6.6   813.1    0.00 
 182    0:00   0.00   65.0    58    4.2    22     8.4   812.9    0.00 
 182    0:10   0.00   64.7    57    4.1     5     7.8   813.0    0.00 
 182    0:20   0.00   64.5    58    5.9    24     9.6   812.9    0.00 
 182    0:30   0.00   64.1    59    4.4    24     9.6   813.0    0.00 
 182    0:40   0.00   63.5    61    1.7   263     4.2   813.1    0.00 
 182    0:50   0.00   63.3    62    3.2     9     4.8   813.2    0.00 
 182    1:00   0.00   63.3    61    4.4    33     8.4   813.2    0.00 
 182    1:10   0.00   63.6    61    3.7    19     6.0   813.2    0.00 
 182    1:20   0.00   62.8    63    3.3    16     8.4   813.0    0.00 
 182    1:30   0.00   63.2    61    4.5    25     8.4   812.8    0.00 
 182    1:40   0.00   62.9    62    5.3    21     9.0   812.8    0.00 
 182    1:50   0.00   62.4    63    5.3     8     9.0   812.8    0.00 
 182    2:00   0.00   62.4    63    6.6     6    10.2   812.8    0.00 
 182    2:10   0.00   62.0    64    5.1    24     9.6   812.9    0.00 
 182    2:20   0.00   61.6    63    4.4    31     7.2   812.8    0.00 
 182    2:30   0.00   61.7    62    4.3   357     7.2   812.8    0.00 
 182    2:40   0.00   61.4    63    5.4     9     8.4   812.9    0.00 
 182    2:50   0.00   61.1    63    4.4    20     7.8   812.9    0.00 
 182    3:00   0.00   60.7    64    4.1     0     7.8   812.8    0.00 
 182    3:10   0.00   60.2    65    4.5     1     8.4   812.9    0.00 
 182    3:20   0.00   60.2    64    5.0    16     9.0   812.8    0.00 
 182    3:30   0.00   59.6    65    5.2    22     8.4   812.8    0.00 
 182    3:40   0.00   59.6    65    5.9    10     9.0   812.9    0.00 
 182    3:50   0.00   59.9    64    6.1     7     9.6   812.9    0.00 
 182    4:00   0.00   59.9    63    6.3     8    10.2   813.0    0.00 
 182    4:10   0.00   59.8    63    6.1     9     8.4   813.0    0.00 
 182    4:20   0.00   59.9    63    5.8   352    10.2   813.1    0.00 
 182    4:30   0.00   59.6    64    4.9     4     8.4   813.2    0.00 
 182    4:40   0.00   59.5    64    5.9    13     9.6   813.3    0.00 
 182    4:50   0.00   59.2    64    6.8    10    10.2   813.5    0.00 
 182    5:00   0.00   59.1    64    5.7    11     9.6   813.5    0.00 
 182    5:10   0.01   58.9    65    4.8     1     8.4   813.8    0.00 
 182    5:20   0.01   58.4    67    3.6    20     5.4   813.9    0.00 
 182    5:30   0.02   58.0    68    5.1    20     9.0   814.0    0.00 
 182    5:40   0.02   58.1    68    5.8    15     9.6   814.0    0.00 
 182    5:50   0.02   58.4    68    6.1    21     9.0   814.0    0.00 
 182    6:00   0.03   58.5    67    4.8    33     7.8   814.1    0.00 
 182    6:10   0.03   58.9    66    4.4    29     7.2   814.2    0.00 
 182    6:20   0.10   59.1    66    2.6    34     5.4   814.3    0.00 

Return to Jemez Springs, Valles Caldera graphs page.


Western Regional Climate Center,wrcc@dri.edu